Time;durP1;ratioP1;P1;durP2;ratioP2;P2;SDS_P1;SDS_P2;PMS_P1;PMS_P2;Temp;Humidity;BMP_temperature;BMP_pressure;BME280_temperature;BME280_humidity;BME280_pressure;Samples;Min_cycle;Max_cycle;Signal;HPM_P1;HPM_P2
2023/06/25 00:01:11;;;;;;;4.82;3.00;;;;;;;24.27;41.63;98611.91;5020028;28;20021;-71
2023/06/25 00:03:37;;;;;;;4.95;2.83;;;;;;;24.25;41.64;98617.44;5036750;28;20045;-72
2023/06/25 00:06:02;;;;;;;5.45;2.95;;;;;;;24.25;41.83;98612.13;5054429;28;20025;-71
2023/06/25 00:08:28;;;;;;;4.53;2.70;;;;;;;24.25;42.12;98605.97;5036830;28;20094;-72
2023/06/25 00:10:54;;;;;;;5.63;3.20;;;;;;;24.29;42.03;98612.50;5036705;28;20083;-71
2023/06/25 00:13:19;;;;;;;3.95;2.90;;;;;;;24.27;41.96;98615.38;5036764;28;20025;-71
2023/06/25 00:15:45;;;;;;;4.82;2.75;;;;;;;24.30;41.64;98606.16;5036494;28;20029;-71
2023/06/25 00:18:10;;;;;;;6.05;2.70;;;;;;;24.26;41.53;98613.75;5053601;28;20098;-71
2023/06/25 00:20:35;;;;;;;4.63;2.70;;;;;;;24.24;41.64;98615.00;5020276;28;20040;-71
2023/06/25 00:23:01;;;;;;;7.00;3.03;;;;;;;24.21;41.59;98618.91;5054605;28;20412;-72
2023/06/25 00:25:26;;;;;;;4.10;2.83;;;;;;;24.20;41.64;98619.94;5052948;28;20052;-71
2023/06/25 00:27:52;;;;;;;3.92;2.95;;;;;;;24.17;41.49;98613.16;5036196;28;20401;-72
2023/06/25 00:30:17;;;;;;;4.07;2.72;;;;;;;24.15;41.64;98611.75;5036255;28;20029;-71
2023/06/25 00:32:43;;;;;;;5.30;3.05;;;;;;;24.15;41.46;98609.06;5035470;28;20689;-71
2023/06/25 00:35:10;;;;;;;7.32;2.80;;;;;;;24.09;41.73;98609.91;5035181;28;20182;-71
2023/06/25 00:37:36;;;;;;;4.47;2.63;;;;;;;24.09;41.72;98615.22;5052230;28;20033;-71
2023/06/25 00:40:03;;;;;;;6.68;2.78;;;;;;;24.08;41.79;98616.25;5051731;28;20052;-71
2023/06/25 00:42:33;;;;;;;8.07;3.15;;;;;;;24.02;41.57;98616.06;5035263;28;20415;-71
2023/06/25 00:44:59;;;;;;;3.60;2.90;;;;;;;24.00;41.57;98609.28;5035774;28;20184;-71
2023/06/25 00:47:24;;;;;;;3.78;2.67;;;;;;;23.96;41.68;98611.56;5052460;28;20499;-71
2023/06/25 00:49:50;;;;;;;5.72;3.00;;;;;;;23.96;41.42;98608.06;5052546;28;20021;-71
2023/06/25 00:52:15;;;;;;;4.68;2.83;;;;;;;23.94;41.15;98610.94;5035913;28;20044;-71
2023/06/25 00:54:42;;;;;;;4.75;3.20;;;;;;;23.90;41.30;98607.03;5036087;28;20091;-71
2023/06/25 00:57:08;;;;;;;5.28;2.80;;;;;;;23.89;41.49;98602.72;5052605;28;20024;-71
2023/06/25 00:59:34;;;;;;;3.63;3.10;;;;;;;23.86;41.33;98605.00;5052021;28;20056;-71
2023/06/25 01:02:06;;;;;;;5.05;2.97;;;;;;;23.82;41.53;98609.91;5035999;28;20045;-71
2023/06/25 01:04:35;;;;;;;3.95;2.80;;;;;;;23.82;41.93;98609.91;5020034;28;20033;-71
2023/06/25 01:07:02;;;;;;;5.07;3.00;;;;;;;23.83;42.00;98600.84;5035823;28;20049;-71
2023/06/25 01:09:27;;;;;;;4.82;3.08;;;;;;;23.89;42.06;98612.59;5035719;28;20508;-71
2023/06/25 01:12:00;;;;;;;3.90;2.80;;;;;;;23.89;42.23;98610.72;5019006;28;20032;-71
2023/06/25 01:14:28;;;;;;;6.40;2.95;;;;;;;23.88;42.35;98603.78;5053777;28;20444;-71
2023/06/25 01:16:56;;;;;;;3.23;2.57;;;;;;;23.85;41.99;98614.84;5052099;28;20036;-72
2023/06/25 01:19:29;;;;;;;5.75;2.75;;;;;;;23.74;42.52;98594.94;5052074;28;20408;-71
2023/06/25 01:21:58;;;;;;;7.03;3.10;;;;;;;23.72;42.23;98604.16;5052431;28;20491;-71
2023/06/25 01:24:23;;;;;;;5.45;2.97;;;;;;;23.67;42.15;98604.75;5052298;28;20039;-71
2023/06/25 01:26:54;;;;;;;6.05;3.00;;;;;;;23.64;42.34;98605.16;5018618;28;20037;-71
2023/06/25 01:29:20;;;;;;;4.68;3.15;;;;;;;23.56;42.39;98603.56;5036184;28;20392;-75
2023/06/25 01:31:45;;;;;;;6.57;3.22;;;;;;;23.58;42.49;98598.03;5035445;28;20052;-75
2023/06/25 01:34:11;;;;;;;4.97;3.13;;;;;;;23.58;42.59;98598.81;5035473;28;20484;-75
2023/06/25 01:36:40;;;;;;;4.60;3.08;;;;;;;23.54;42.87;98608.25;5035451;28;20056;-75
2023/06/25 01:39:06;;;;;;;5.35;3.40;;;;;;;23.52;42.60;98610.28;5052059;28;20033;-76
2023/06/25 01:41:33;;;;;;;6.28;2.78;;;;;;;23.49;43.05;98597.38;5052086;28;20116;-75
2023/06/25 01:43:58;;;;;;;5.65;3.17;;;;;;;23.43;42.72;98590.22;5051909;28;20127;-75
2023/06/25 01:46:24;;;;;;;4.03;3.00;;;;;;;23.43;42.90;98595.53;5035083;28;20072;-75
2023/06/25 01:48:49;;;;;;;4.45;3.30;;;;;;;23.29;42.74;98587.53;5035327;28;20381;-76
2023/06/25 01:51:15;;;;;;;4.47;2.83;;;;;;;23.28;43.03;98598.41;5034469;28;20044;-71
2023/06/25 01:53:40;;;;;;;5.40;2.90;;;;;;;23.29;43.18;98598.19;5052005;28;20087;-70
2023/06/25 01:56:06;;;;;;;6.13;2.90;;;;;;;23.26;43.10;98603.91;5018712;28;20037;-71
2023/06/25 01:58:31;;;;;;;5.93;3.05;;;;;;;23.16;43.37;98602.66;5051778;28;20112;-71
2023/06/25 02:00:57;;;;;;;7.35;3.00;;;;;;;23.10;42.98;98607.78;5018817;28;20029;-70
2023/06/25 02:03:22;;;;;;;5.78;3.10;;;;;;;23.08;43.33;98609.81;5034799;28;20048;-70
2023/06/25 02:05:47;;;;;;;5.68;3.45;;;;;;;23.04;43.34;98599.72;5034908;28;20033;-71
2023/06/25 02:08:13;;;;;;;4.32;3.03;;;;;;;23.00;43.71;98606.50;5051720;28;20040;-71
2023/06/25 02:10:38;;;;;;;4.55;3.45;;;;;;;23.03;43.72;98606.91;5051276;28;20036;-71
2023/06/25 02:13:04;;;;;;;4.57;3.08;;;;;;;23.04;43.48;98597.91;5018266;28;20045;-71
2023/06/25 02:15:31;;;;;;;4.10;2.92;;;;;;;23.01;43.54;98586.81;5034626;28;20110;-71
2023/06/25 02:17:56;;;;;;;4.38;3.30;;;;;;;23.05;43.84;98585.41;5051311;28;20107;-71
2023/06/25 02:20:22;;;;;;;4.47;3.08;;;;;;;23.12;43.57;98592.41;5051365;28;20028;-71
2023/06/25 02:22:48;;;;;;;6.05;3.28;;;;;;;23.09;43.95;98590.16;5052596;28;20051;-71
2023/06/25 02:25:13;;;;;;;4.53;3.20;;;;;;;23.07;44.12;98600.16;5051010;28;20082;-71
2023/06/25 02:27:39;;;;;;;8.70;3.25;;;;;;;22.96;44.18;98584.75;5018293;28;20116;-71
2023/06/25 02:30:05;;;;;;;4.20;3.40;;;;;;;22.98;44.01;98595.19;5050910;28;20495;-71
2023/06/25 02:32:30;;;;;;;4.43;2.95;;;;;;;22.92;44.02;98592.34;5050905;28;20024;-71
2023/06/25 02:34:56;;;;;;;5.40;2.88;;;;;;;22.89;44.26;98594.59;5034365;28;20111;-71
2023/06/25 02:37:21;;;;;;;8.10;3.00;;;;;;;22.92;43.91;98597.66;5052172;28;20046;-71
2023/06/25 02:39:47;;;;;;;5.18;3.33;;;;;;;22.93;43.95;98598.50;5034901;28;20029;-71
2023/06/25 02:42:12;;;;;;;4.80;3.20;;;;;;;22.87;43.87;98592.13;5034404;28;20468;-71
2023/06/25 02:44:38;;;;;;;4.55;3.35;;;;;;;22.90;44.06;98598.91;5018018;28;20044;-71
2023/06/25 02:47:04;;;;;;;4.40;3.10;;;;;;;22.90;44.26;98597.03;5034404;28;20413;-71
2023/06/25 02:49:29;;;;;;;4.25;2.90;;;;;;;22.91;44.25;98600.50;5050604;28;20037;-71
2023/06/25 02:51:55;;;;;;;4.82;3.40;;;;;;;22.95;44.19;98596.44;5034137;28;20116;-71
2023/06/25 02:54:20;;;;;;;6.88;3.20;;;;;;;22.91;44.27;98600.50;5017735;28;20025;-71
2023/06/25 02:56:46;;;;;;;6.60;3.13;;;;;;;22.84;44.17;98610.34;5051547;28;20033;-71
2023/06/25 02:59:12;;;;;;;6.10;3.22;;;;;;;22.87;44.48;98610.75;5034365;28;20025;-71
2023/06/25 03:01:37;;;;;;;4.72;3.15;;;;;;;22.91;44.21;98606.69;5051923;28;20041;-71
2023/06/25 03:04:03;;;;;;;6.95;3.40;;;;;;;23.16;43.83;98602.66;5038545;28;20091;-71
2023/06/25 03:06:28;;;;;;;5.07;3.22;;;;;;;23.43;43.07;98611.50;5054775;28;20044;-71
2023/06/25 03:08:54;;;;;;;6.28;3.35;;;;;;;23.74;42.73;98618.09;5038425;28;20222;-71
2023/06/25 03:11:19;;;;;;;4.50;3.10;;;;;;;23.95;42.00;98612.56;5021723;28;20037;-71
2023/06/25 03:13:45;;;;;;;4.50;3.30;;;;;;;24.16;41.54;98608.88;5054727;28;20456;-71
2023/06/25 03:16:10;;;;;;;8.07;3.30;;;;;;;24.30;41.24;98603.50;5055752;28;20032;-70
2023/06/25 03:18:36;;;;;;;5.05;3.30;;;;;;;24.02;41.90;98610.72;5054545;28;20032;-71
2023/06/25 03:21:01;;;;;;;6.10;2.97;;;;;;;23.83;42.17;98614.19;5038075;28;20036;-71
2023/06/25 03:23:27;;;;;;;6.50;3.25;;;;;;;23.73;42.65;98621.78;5021325;28;20047;-71
2023/06/25 03:25:52;;;;;;;6.63;2.88;;;;;;;23.65;42.77;98634.28;5021618;28;20045;-71
2023/06/25 03:28:18;;;;;;;4.15;3.20;;;;;;;23.65;43.00;98630.78;5037164;28;20155;-71
2023/06/25 03:30:46;;;;;;;4.50;3.25;;;;;;;23.61;43.23;98624.22;5054202;28;20082;-71
2023/06/25 03:33:11;;;;;;;5.28;2.80;;;;;;;24.31;40.52;98626.47;5038231;28;20106;-71
2023/06/25 03:35:37;;;;;;;5.05;3.13;;;;;;;24.98;39.38;98631.59;5053962;28;20479;-71
2023/06/25 03:38:02;;;;;;;3.75;3.20;;;;;;;25.31;39.04;98623.44;5054186;28;20052;-71
2023/06/25 03:40:28;;;;;;;8.45;3.15;;;;;;;25.99;37.93;98613.88;5055642;28;20037;-71
2023/06/25 03:42:53;;;;;;;3.42;2.58;;;;;;;26.53;37.33;98596.25;5021445;28;20420;-71
2023/06/25 03:45:19;;;;;;;4.25;3.15;;;;;;;27.00;36.31;98600.19;5054449;28;20028;-71
2023/06/25 03:47:44;;;;;;;4.45;3.30;;;;;;;27.43;35.24;98601.88;5037338;28;20393;-71
2023/06/25 03:50:10;;;;;;;4.30;3.17;;;;;;;27.85;34.94;98598.28;5020798;28;20396;-71
2023/06/25 03:52:36;;;;;;;5.07;3.00;;;;;;;28.21;34.11;98586.53;5037146;28;20045;-71
2023/06/25 03:55:01;;;;;;;6.78;3.00;;;;;;;28.60;33.92;98594.88;5037429;28;20052;-71
2023/06/25 03:57:28;;;;;;;4.95;3.33;;;;;;;28.67;34.27;98592.03;5053379;28;20465;-71
2023/06/25 03:59:54;;;;;;;5.28;3.63;;;;;;;29.25;33.95;98602.81;5037326;28;20043;-70
2023/06/25 04:02:19;;;;;;;7.18;3.95;;;;;;;29.48;33.92;98599.19;5036801;28;20420;-71
2023/06/25 04:04:45;;;;;;;6.40;3.80;;;;;;;29.77;33.89;98589.13;5037014;28;20476;-67
2023/06/25 04:07:10;;;;;;;14.20;3.80;;;;;;;30.42;33.16;98593.03;5037338;28;20029;-68
2023/06/25 04:09:36;;;;;;;11.02;4.15;;;;;;;31.05;33.21;98595.41;5036600;28;20526;-68
2023/06/25 04:12:01;;;;;;;15.65;4.70;;;;;;;31.43;32.46;98601.69;5037062;28;20033;-68
2023/06/25 04:14:27;;;;;;;10.13;4.45;;;;;;;31.82;32.34;98598.78;5052616;28;20033;-67
2023/06/25 04:16:52;;;;;;;8.70;4.28;;;;;;;32.15;31.87;98601.41;5053940;28;20052;-68
2023/06/25 04:19:18;;;;;;;15.20;4.18;;;;;;;32.74;30.93;98597.66;5054360;28;20041;-71
2023/06/25 04:21:43;;;;;;;13.52;4.70;;;;;;;33.21;31.19;98606.69;5053349;28;20404;-69
2023/06/25 04:24:09;;;;;;;10.65;4.32;;;;;;;33.47;30.78;98591.28;5053145;28;20029;-68
2023/06/25 04:26:34;;;;;;;9.23;4.00;;;;;;;33.79;30.67;98591.00;5022188;28;20048;-68
2023/06/25 04:29:00;;;;;;;21.73;4.32;;;;;;;34.32;29.78;98589.84;5036322;28;20422;-68
2023/06/25 04:31:25;;;;;;;13.52;4.35;;;;;;;34.55;29.57;98589.16;5036337;28;20029;-67
2023/06/25 04:33:51;;;;;;;14.98;4.40;;;;;;;34.90;29.22;98587.41;5054177;28;20033;-69
2023/06/25 04:36:17;;;;;;;16.33;4.07;;;;;;;35.38;28.64;98597.66;5052775;28;20499;-68
2023/06/25 04:38:43;;;;;;;10.50;4.13;;;;;;;35.83;28.17;98597.56;5036745;28;20029;-72
2023/06/25 04:41:08;;;;;;;14.63;3.90;;;;;;;36.27;27.79;98602.00;5052683;28;20773;-73
2023/06/25 04:43:34;;;;;;;10.20;3.55;;;;;;;36.79;27.44;98599.47;5019823;28;20037;-72
2023/06/25 04:46:00;;;;;;;12.52;3.88;;;;;;;37.32;26.58;98598.44;5053857;28;20373;-73
2023/06/25 04:48:26;;;;;;;11.13;3.28;;;;;;;37.86;26.10;98589.91;5036232;28;20056;-82
2023/06/25 04:50:51;;;;;;;10.70;3.45;;;;;;;38.40;25.42;98593.78;5035893;28;20052;-73
2023/06/25 04:53:17;;;;;;;13.73;3.50;;;;;;;38.79;24.98;98580.72;5035731;28;20029;-74
2023/06/25 04:55:42;;;;;;;9.73;3.38;;;;;;;39.32;23.91;98582.75;5035957;28;20029;-74
2023/06/25 04:58:08;;;;;;;7.15;3.20;;;;;;;39.79;23.54;98587.88;5052593;28;20017;-75
2023/06/25 05:00:33;;;;;;;12.20;3.53;;;;;;;40.31;22.89;98576.31;5053609;28;20036;-74
2023/06/25 05:02:58;;;;;;;10.65;3.50;;;;;;;40.76;22.13;98573.38;5035362;28;20037;-71
2023/06/25 05:05:24;;;;;;;12.88;3.53;;;;;;;40.85;22.02;98581.63;5035615;28;20424;-70
2023/06/25 05:07:50;;;;;;;20.25;3.72;;;;;;;40.83;21.99;98581.09;5018611;28;20044;-69
2023/06/25 05:10:16;;;;;;;19.98;3.85;;;;;;;40.76;22.13;98572.56;5019185;28;20468;-75
2023/06/25 05:12:41;;;;;;;31.60;3.50;;;;;;;41.15;21.79;98579.81;5019308;28;20056;-68
2023/06/25 05:15:07;;;;;;;15.68;3.85;;;;;;;41.05;21.78;98569.19;5052241;28;20056;-68
2023/06/25 05:17:32;;;;;;;22.38;3.92;;;;;;;41.54;21.37;98566.25;5035625;28;20108;-71
2023/06/25 05:19:58;;;;;;;17.70;3.60;;;;;;;42.43;20.39;98566.34;5035948;28;20033;-71
2023/06/25 05:22:23;;;;;;;9.40;3.40;;;;;;;43.10;19.57;98571.19;5052023;28;20086;-72
2023/06/25 05:24:49;;;;;;;9.67;3.17;;;;;;;43.75;19.03;98578.94;5035562;28;20052;-71
2023/06/25 05:27:14;;;;;;;16.97;3.10;;;;;;;44.22;18.50;98567.53;5019139;28;20032;-70
2023/06/25 05:29:40;;;;;;;15.50;3.67;;;;;;;44.68;17.86;98562.66;5018649;28;20559;-72
2023/06/25 05:32:06;;;;;;;11.60;2.90;;;;;;;45.06;17.98;98572.41;5018738;28;20041;-74
2023/06/25 05:34:31;;;;;;;12.07;3.37;;;;;;;45.43;17.03;98560.41;5035561;28;20128;-72
2023/06/25 05:36:57;;;;;;;11.93;3.00;;;;;;;45.74;17.13;98561.53;5052822;28;20036;-74
2023/06/25 05:39:28;;;;;;;9.20;3.20;;;;;;;46.01;16.84;98571.69;5049096;28;20118;-74
2023/06/25 05:41:55;;;;;;;13.05;3.10;;;;;;;46.34;16.57;98566.97;5018013;28;20068;-74
2023/06/25 05:44:21;;;;;;;8.82;2.60;;;;;;;46.54;16.65;98565.84;5035016;28;20025;-73
2023/06/25 05:46:46;;;;;;;8.33;2.83;;;;;;;46.76;16.34;98563.50;5034389;28;20090;-71
2023/06/25 05:49:12;;;;;;;7.27;2.73;;;;;;;46.97;16.32;98565.94;5052586;28;20033;-71
2023/06/25 05:51:37;;;;;;;7.20;2.73;;;;;;;47.14;15.98;98561.13;5051723;28;20079;-69
2023/06/25 05:54:03;;;;;;;8.77;2.78;;;;;;;47.36;15.79;98556.81;5035138;28;20025;-69
2023/06/25 05:56:28;;;;;;;9.40;2.97;;;;;;;47.44;15.43;98562.06;5051380;28;20041;-69
2023/06/25 05:58:54;;;;;;;9.87;2.90;;;;;;;47.43;15.98;98560.50;5034893;28;20499;-72
2023/06/25 06:01:21;;;;;;;11.67;2.87;;;;;;;47.14;16.15;98556.38;5034725;28;20029;-75
2023/06/25 06:03:47;;;;;;;16.13;2.92;;;;;;;46.92;16.37;98544.13;5034700;28;20264;-73
2023/06/25 06:06:13;;;;;;;16.17;3.10;;;;;;;46.72;16.63;98551.63;5051152;28;20035;-72
2023/06/25 06:08:38;;;;;;;9.10;2.93;;;;;;;46.53;16.88;98563.44;5034889;28;20504;-70
2023/06/25 06:11:04;;;;;;;12.80;3.23;;;;;;;46.64;16.61;98552.59;5051077;28;20079;-70
2023/06/25 06:13:29;;;;;;;14.37;3.07;;;;;;;46.86;16.54;98565.72;5034807;28;20045;-69
2023/06/25 06:15:55;;;;;;;16.47;3.00;;;;;;;46.79;16.59;98560.03;5035038;28;20047;-70
2023/06/25 06:18:20;;;;;;;23.43;3.30;;;;;;;46.86;16.32;98549.13;5032209;28;20045;-70
2023/06/25 06:20:46;;;;;;;15.15;2.78;;;;;;;46.97;16.41;98554.91;5013351;28;20196;-69
2023/06/25 06:23:11;;;;;;;9.07;2.73;;;;;;;47.05;16.00;98556.63;5031862;28;20072;-69
2023/06/25 06:25:37;;;;;;;7.90;2.50;;;;;;;47.11;16.05;98557.09;5031366;28;20025;-69
2023/06/25 06:28:03;;;;;;;7.60;2.80;;;;;;;47.16;16.05;98556.00;5013615;28;20049;-67
2023/06/25 06:30:28;;;;;;;8.43;2.50;;;;;;;47.21;15.78;98555.72;5031319;28;20107;-67
2023/06/25 06:32:54;;;;;;;7.10;2.90;;;;;;;47.17;15.93;98552.09;5029644;28;20813;-70
2023/06/25 06:35:20;;;;;;;7.03;2.60;;;;;;;47.01;16.17;98552.19;5013555;28;20025;-71
2023/06/25 06:37:45;;;;;;;8.88;2.88;;;;;;;46.99;15.84;98552.56;5029597;28;20029;-70
2023/06/25 06:40:11;;;;;;;13.60;2.63;;;;;;;46.81;16.46;98545.84;5029892;28;20025;-70
2023/06/25 06:42:36;;;;;;;8.20;2.73;;;;;;;46.78;16.14;98552.91;5029876;28;20029;-70
2023/06/25 06:45:02;;;;;;;14.60;2.90;;;;;;;46.77;16.56;98548.56;5030191;28;20075;-72
2023/06/25 06:47:28;;;;;;;11.13;2.55;;;;;;;46.75;16.39;98540.63;5013480;28;20138;-73
2023/06/25 06:49:53;;;;;;;12.30;2.93;;;;;;;46.71;16.84;98548.03;5023052;28;20040;-74
2023/06/25 06:52:22;;;;;;;9.33;2.50;;;;;;;46.70;16.86;98540.13;5049727;28;20432;-72
2023/06/25 06:54:48;;;;;;;6.25;2.60;;;;;;;46.69;16.92;98539.31;5033557;28;20029;-72
2023/06/25 06:57:13;;;;;;;5.87;2.80;;;;;;;46.68;17.00;98545.22;5050943;28;20499;-72
2023/06/25 06:59:39;;;;;;;6.30;2.53;;;;;;;46.61;16.96;98539.53;5033109;28;20112;-70
2023/06/25 07:02:04;;;;;;;11.60;2.73;;;;;;;46.51;16.66;98544.47;5049664;28;20122;-72
2023/06/25 07:04:30;;;;;;;9.77;2.73;;;;;;;46.47;16.69;98531.75;5050803;28;20021;-72
2023/06/25 07:06:55;;;;;;;5.27;2.57;;;;;;;46.37;16.75;98535.84;5050725;28;20048;-72
2023/06/25 07:09:22;;;;;;;12.73;3.00;;;;;;;46.30;17.29;98535.72;5033281;28;20041;-71
2023/06/25 07:11:47;;;;;;;6.78;2.65;;;;;;;46.20;16.91;98529.59;5050651;28;20084;-77
2023/06/25 07:14:13;;;;;;;10.18;2.97;;;;;;;46.05;16.90;98535.91;5050035;28;20385;-77
2023/06/25 07:16:41;;;;;;;6.87;2.40;;;;;;;45.90;17.53;98532.03;5016460;28;20044;-77
2023/06/25 07:19:07;;;;;;;6.93;2.60;;;;;;;45.78;17.49;98530.19;5033946;28;20051;-80
2023/06/25 07:21:33;;;;;;;7.20;2.50;;;;;;;45.68;17.39;98531.50;5050226;28;20404;-80
2023/06/25 07:23:58;;;;;;;8.50;2.40;;;;;;;45.56;17.42;98520.56;5049554;28;20029;-77
2023/06/25 07:26:24;;;;;;;6.33;2.50;;;;;;;45.45;17.52;98536.03;5049473;28;20132;-77
2023/06/25 07:28:49;;;;;;;6.73;2.70;;;;;;;45.31;18.16;98528.97;5049040;28;20140;-80
2023/06/25 07:31:14;;;;;;;14.60;2.70;;;;;;;45.22;17.95;98533.06;5050232;28;20048;-79
2023/06/25 07:33:40;;;;;;;10.00;2.83;;;;;;;45.09;18.41;98524.88;5048761;28;20060;-76
2023/06/25 07:36:05;;;;;;;6.57;2.57;;;;;;;44.99;18.39;98536.38;5049812;28;20025;-77
2023/06/25 07:38:31;;;;;;;7.43;2.73;;;;;;;44.80;18.30;98524.06;5049692;28;20044;-79
2023/06/25 07:40:57;;;;;;;6.93;2.67;;;;;;;44.64;18.08;98517.69;5016911;28;20026;-78
2023/06/25 07:43:22;;;;;;;5.97;2.30;;;;;;;44.51;18.80;98527.91;5033327;28;20033;-77
2023/06/25 07:45:48;;;;;;;6.97;2.60;;;;;;;44.35;19.01;98521.56;5049667;28;20428;-77
2023/06/25 07:48:13;;;;;;;14.43;2.90;;;;;;;44.20;19.14;98523.06;5033319;28;20033;-77
2023/06/25 07:50:39;;;;;;;7.03;2.73;;;;;;;44.09;19.24;98526.28;5037823;28;20037;-89
2023/06/25 07:53:04;;;;;;;10.40;2.80;;;;;;;44.00;19.29;98520.09;5037726;28;20053;-77
2023/06/25 07:55:30;;;;;;;8.97;2.60;;;;;;;43.94;19.32;98524.22;5053058;28;20021;-77
2023/06/25 07:57:55;;;;;;;8.27;2.67;;;;;;;43.82;19.51;98515.97;5053518;28;20037;-78
2023/06/25 08:00:21;;;;;;;5.97;2.23;;;;;;;43.76;19.67;98514.56;5037334;28;20021;-75
2023/06/25 08:02:47;;;;;;;5.90;2.57;;;;;;;43.67;19.42;98511.94;5053017;28;20400;-78
2023/06/25 08:05:12;;;;;;;5.37;2.27;;;;;;;43.59;19.57;98513.66;5020247;28;20122;-75
2023/06/25 08:07:38;;;;;;;11.00;2.73;;;;;;;43.54;19.54;98508.38;5053578;28;20037;-76
2023/06/25 08:10:04;;;;;;;7.53;3.00;;;;;;;43.41;19.78;98515.00;5036668;28;20045;-75
2023/06/25 08:12:29;;;;;;;11.23;3.10;;;;;;;43.32;19.92;98507.63;5037032;28;20041;-76
2023/06/25 08:14:55;;;;;;;5.90;2.60;;;;;;;43.26;20.16;98514.47;5020423;28;20091;-75
2023/06/25 08:17:20;;;;;;;10.70;3.10;;;;;;;43.17;20.12;98505.53;5053317;28;20032;-76
2023/06/25 08:19:46;;;;;;;8.27;3.40;;;;;;;43.12;20.14;98498.31;5053395;28;20092;-75
2023/06/25 08:22:11;;;;;;;8.57;3.00;;;;;;;43.00;20.38;98490.88;5019569;28;20126;-79
2023/06/25 08:24:37;;;;;;;6.10;2.70;;;;;;;42.95;20.34;98491.06;5053204;28;20061;-75
2023/06/25 08:27:02;;;;;;;8.90;2.70;;;;;;;42.88;20.45;98490.78;5054790;28;20021;-77
2023/06/25 08:29:28;;;;;;;11.47;3.00;;;;;;;42.80;20.39;98486.19;5054436;28;20041;-78
2023/06/25 08:31:53;;;;;;;10.30;3.27;;;;;;;42.62;20.98;98480.03;5054374;28;20029;-75
2023/06/25 08:34:19;;;;;;;10.40;2.90;;;;;;;42.50;21.01;98477.25;5041191;28;20033;-81
2023/06/25 08:36:44;;;;;;;12.00;2.93;;;;;;;42.42;21.00;98476.16;5016876;28;20103;-78
2023/06/25 08:39:10;;;;;;;10.00;3.27;;;;;;;42.32;21.01;98476.56;5021151;28;20072;-79
2023/06/25 08:41:35;;;;;;;7.70;2.80;;;;;;;42.28;21.32;98470.94;5036314;28;20484;-79
2023/06/25 08:44:01;;;;;;;9.40;2.80;;;;;;;42.14;20.62;98475.91;5049522;28;20025;-79
2023/06/25 08:46:27;;;;;;;12.80;3.83;;;;;;;42.00;21.07;98478.84;5016528;28;20026;-78
2023/06/25 08:48:53;;;;;;;8.30;3.10;;;;;;;41.91;20.90;98465.22;5000679;28;20147;-80
2023/06/25 08:51:22;;;;;;;15.30;3.58;;;;;;;41.70;21.05;98470.59;5016917;28;20188;-75
2023/06/25 08:53:47;;;;;;;7.80;2.72;;;;;;;41.55;21.16;98466.50;5004310;28;20056;-77
2023/06/25 08:56:15;;;;;;;9.05;2.97;;;;;;;41.37;21.59;98463.00;5032789;28;20021;-81
2023/06/25 08:58:40;;;;;;;6.18;2.83;;;;;;;41.28;21.63;98459.50;5016512;28;20108;-75
2023/06/25 09:01:06;;;;;;;6.40;3.08;;;;;;;41.18;22.20;98466.94;5021212;28;20133;-76
2023/06/25 09:03:31;;;;;;;9.80;3.50;;;;;;;40.95;21.93;98452.66;5030674;28;20091;-76
2023/06/25 09:06:02;;;;;;;10.20;3.50;;;;;;;40.87;22.00;98459.75;5032880;28;20029;-76
2023/06/25 09:08:27;;;;;;;11.30;3.50;;;;;;;40.72;22.74;98453.94;5034200;28;20040;-75
2023/06/25 09:10:54;;;;;;;8.25;2.97;;;;;;;40.62;22.42;98460.56;5032631;28;20033;-77
2023/06/25 09:13:23;;;;;;;10.43;3.83;;;;;;;40.50;22.51;98453.81;5032653;28;20038;-76
2023/06/25 09:15:49;;;;;;;7.05;3.22;;;;;;;40.44;22.83;98462.50;5033839;28;20029;-76
2023/06/25 09:18:14;;;;;;;8.35;3.65;;;;;;;40.29;22.75;98459.06;5016109;28;20059;-75
2023/06/25 09:20:46;;;;;;;7.82;3.60;;;;;;;40.11;22.96;98466.47;5033839;28;20022;-76
2023/06/25 09:23:17;;;;;;;8.15;3.83;;;;;;;40.04;23.16;98447.00;5032505;28;20040;-76
2023/06/25 09:25:43;;;;;;;11.35;4.10;;;;;;;39.97;23.19;98452.16;5032387;28;20392;-75
2023/06/25 09:28:09;;;;;;;11.50;3.60;;;;;;;39.90;23.46;98443.56;5032232;28;20053;-75
2023/06/25 09:30:35;;;;;;;9.13;3.35;;;;;;;39.73;23.52;98447.09;5032026;28;20033;-75
2023/06/25 09:33:02;;;;;;;8.60;3.50;;;;;;;39.54;23.13;98439.16;5032736;28;20382;-75
2023/06/25 09:35:29;;;;;;;8.95;3.10;;;;;;;39.45;23.13;98441.81;5032293;28;20029;-75
2023/06/25 09:37:55;;;;;;;11.55;3.22;;;;;;;39.36;23.31;98439.06;5033387;28;20120;-74
2023/06/25 09:40:20;;;;;;;7.47;3.17;;;;;;;39.21;23.33;98434.00;5031884;28;20471;-75
2023/06/25 09:42:47;;;;;;;6.03;3.08;;;;;;;38.96;23.92;98441.69;5032102;28;20408;-77
2023/06/25 09:45:16;;;;;;;9.70;3.05;;;;;;;38.75;24.44;98432.44;5032039;28;20029;-75
2023/06/25 09:47:43;;;;;;;8.27;3.13;;;;;;;38.70;24.73;98444.28;5032221;28;20038;-75
2023/06/25 09:50:18;;;;;;;;;;;;;;;38.56;24.53;98433.41;5032151;28;20463;-76
2023/06/25 09:52:55;;;;;;;7.20;3.00;;;;;;;38.42;24.75;98433.44;5032052;28;19936;-76
2023/06/25 09:55:21;;;;;;;8.82;2.83;;;;;;;38.33;24.57;98432.56;5031827;28;20038;-76
2023/06/25 09:57:47;;;;;;;5.97;3.20;;;;;;;38.30;24.96;98427.72;5031698;28;20025;-73
2023/06/25 10:00:14;;;;;;;8.90;2.90;;;;;;;38.19;25.17;98427.97;5048339;28;20029;-76
2023/06/25 10:02:39;;;;;;;7.00;3.00;;;;;;;38.05;25.70;98424.44;5048085;28;20041;-76
2023/06/25 10:05:05;;;;;;;8.65;3.03;;;;;;;38.00;25.63;98422.63;5031457;28;20029;-75
2023/06/25 10:07:30;;;;;;;7.70;3.10;;;;;;;37.98;25.34;98427.56;5031382;28;20052;-74
2023/06/25 10:09:56;;;;;;;9.55;3.20;;;;;;;37.85;25.55;98420.25;5031648;28;20034;-75
2023/06/25 10:12:22;;;;;;;8.00;3.00;;;;;;;37.79;25.85;98416.81;5047510;28;20026;-76
2023/06/25 10:14:48;;;;;;;7.93;3.00;;;;;;;37.70;25.77;98406.94;5031274;28;20057;-75
2023/06/25 10:17:14;;;;;;;7.40;3.20;;;;;;;37.61;25.82;98415.78;5031304;28;20025;-76
2023/06/25 10:19:49;;;;;;;7.93;3.00;;;;;;;37.55;25.63;98405.31;5031258;28;20461;-75
2023/06/25 10:22:16;;;;;;;5.13;3.03;;;;;;;37.44;25.79;98389.19;5047732;28;20029;-75
2023/06/25 10:24:42;;;;;;;8.48;2.83;;;;;;;37.36;25.77;98384.44;5031267;28;20044;-75
2023/06/25 10:27:27;;;;;;;6.88;2.63;;;;;;;37.34;25.67;98389.38;5047796;28;20174;-75
2023/06/25 10:29:53;;;;;;;8.80;3.00;;;;;;;37.31;25.75;98392.72;5047461;28;20049;-76
2023/06/25 10:32:27;;;;;;;5.63;2.75;;;;;;;37.19;25.78;98376.03;5047391;28;20553;-76
2023/06/25 10:34:53;;;;;;;8.13;3.30;;;;;;;37.10;25.96;98376.75;5031375;28;20500;-76
2023/06/25 10:37:19;;;;;;;5.38;2.72;;;;;;;36.97;25.44;98369.34;5047555;28;20135;-74
2023/06/25 10:39:44;;;;;;;6.20;3.00;;;;;;;36.89;25.76;98370.06;5047513;28;20112;-76
2023/06/25 10:42:12;;;;;;;9.30;3.10;;;;;;;36.71;26.02;98358.91;5031082;28;20049;-74
2023/06/25 10:44:37;;;;;;;5.43;2.92;;;;;;;36.60;25.99;98368.34;5047123;28;20022;-75
2023/06/25 10:47:03;;;;;;;5.90;3.00;;;;;;;36.46;25.75;98362.88;5047318;28;20049;-76
2023/06/25 10:49:29;;;;;;;5.65;2.60;;;;;;;36.35;25.38;98345.13;5032447;28;20029;-75
2023/06/25 10:52:12;;;;;;;7.38;3.03;;;;;;;36.25;25.39;98343.38;5031976;28;20473;-75
2023/06/25 10:54:37;;;;;;;5.55;2.65;;;;;;;36.22;25.52;98350.16;5014296;28;20116;-75
2023/06/25 10:57:07;;;;;;;7.35;2.90;;;;;;;36.10;25.63;98344.38;5031912;28;20052;-75
2023/06/25 10:59:33;;;;;;;6.13;2.90;;;;;;;36.05;25.51;98353.41;5047193;28;20029;-76
2023/06/25 11:02:16;;;;;;;6.63;2.70;;;;;;;35.97;25.58;98348.63;5031110;28;20053;-74
2023/06/25 11:04:42;;;;;;;6.60;2.70;;;;;;;35.89;25.60;98345.78;5014441;28;20033;-75
2023/06/25 11:07:10;;;;;;;9.38;2.90;;;;;;;35.82;25.95;98346.97;5047142;28;20481;-76
2023/06/25 11:09:35;;;;;;;4.57;2.80;;;;;;;35.76;25.99;98342.69;5030600;28;20030;-75
2023/06/25 11:12:01;;;;;;;6.20;2.67;;;;;;;35.73;26.41;98339.72;5030385;28;20520;-74
2023/06/25 11:14:26;;;;;;;5.65;2.70;;;;;;;35.68;26.08;98335.19;5030367;28;20124;-75
2023/06/25 11:16:52;;;;;;;7.47;2.67;;;;;;;35.67;26.30;98331.63;5030729;28;20477;-74
2023/06/25 11:19:17;;;;;;;5.72;2.90;;;;;;;35.64;25.98;98334.13;5047253;28;20053;-75
2023/06/25 11:21:43;;;;;;;6.00;2.65;;;;;;;35.56;25.73;98330.16;5030515;28;20036;-75
2023/06/25 11:24:09;;;;;;;8.13;2.55;;;;;;;35.53;25.96;98329.94;5033541;28;20030;-76
2023/06/25 11:26:41;;;;;;;5.43;2.60;;;;;;;35.50;26.37;98328.59;5050921;28;20026;-76